QFA515 YBBN-YSSY
Flight info
| Callsign | QFA515 |
|---|---|
| Flight time | 1h 13m |
| Altitude | 36000 |
| Route | BN H91 IGDAM H652 TESAT |
| Aircraft | B738/M-SDE2E3FGHIRWXY/LB1 |
Departure
| Time | 2026-05-05 03:19 |
|---|---|
| Airport | Brisbane International Airport (YBBN) |
Arrival
| Time | 2026-05-05 04:32 |
|---|---|
| Airport | Sydney Kingsford Smith International Airport (YSSY) |
| Time | Latitude | Longitude | Altitude | Speed | Heading |
|---|---|---|---|---|---|
| 2026-05-05 02:57 | -27.38378 | 153.12138 | 44 ft | 0 kts | 262° |
| 2026-05-05 03:04 | -27.38376 | 153.12160 | 18 ft | 4 kts | 278° |
| 2026-05-05 03:05 | -27.38383 | 153.12182 | 20 ft | 3 kts | 303° |
| 2026-05-05 03:05 | -27.38400 | 153.12203 | 18 ft | 4 kts | 337° |
| 2026-05-05 03:05 | -27.38423 | 153.12206 | 17 ft | 4 kts | 35° |
| 2026-05-05 03:05 | -27.38432 | 153.12195 | 17 ft | 0 kts | 89° |
| 2026-05-05 03:08 | -27.38432 | 153.12198 | 17 ft | 2 kts | 90° |
| 2026-05-05 03:08 | -27.38432 | 153.12219 | 17 ft | 3 kts | 92° |
| 2026-05-05 03:08 | -27.38433 | 153.12242 | 17 ft | 3 kts | 91° |
| 2026-05-05 03:08 | -27.38434 | 153.12273 | 17 ft | 5 kts | 91° |
| 2026-05-05 03:09 | -27.38434 | 153.12324 | 17 ft | 7 kts | 91° |
| 2026-05-05 03:09 | -27.38436 | 153.12377 | 17 ft | 7 kts | 93° |
| 2026-05-05 03:09 | -27.38449 | 153.12429 | 18 ft | 7 kts | 115° |
| 2026-05-05 03:09 | -27.38476 | 153.12471 | 17 ft | 7 kts | 150° |
| 2026-05-05 03:10 | -27.38520 | 153.12462 | 18 ft | 7 kts | 206° |
| 2026-05-05 03:10 | -27.38560 | 153.12438 | 18 ft | 6 kts | 207° |
| 2026-05-05 03:10 | -27.38602 | 153.12414 | 18 ft | 8 kts | 207° |
| 2026-05-05 03:10 | -27.38659 | 153.12382 | 18 ft | 11 kts | 207° |
| 2026-05-05 03:11 | -27.38735 | 153.12338 | 18 ft | 14 kts | 207° |
| 2026-05-05 03:11 | -27.38829 | 153.12285 | 17 ft | 16 kts | 207° |
| 2026-05-05 03:11 | -27.38937 | 153.12223 | 17 ft | 18 kts | 207° |
| 2026-05-05 03:11 | -27.39053 | 153.12157 | 17 ft | 19 kts | 207° |
| 2026-05-05 03:12 | -27.39166 | 153.12092 | 18 ft | 18 kts | 207° |
| 2026-05-05 03:12 | -27.39275 | 153.12030 | 17 ft | 17 kts | 207° |
| 2026-05-05 03:12 | -27.39380 | 153.11970 | 18 ft | 17 kts | 207° |
| 2026-05-05 03:12 | -27.39481 | 153.11912 | 17 ft | 16 kts | 207° |
| 2026-05-05 03:13 | -27.39578 | 153.11856 | 17 ft | 15 kts | 207° |
| 2026-05-05 03:13 | -27.39672 | 153.11803 | 18 ft | 15 kts | 207° |
| 2026-05-05 03:13 | -27.39761 | 153.11752 | 17 ft | 14 kts | 207° |
| 2026-05-05 03:13 | -27.39847 | 153.11703 | 17 ft | 14 kts | 207° |
| 2026-05-05 03:14 | -27.39929 | 153.11656 | 17 ft | 13 kts | 206° |
| 2026-05-05 03:14 | -27.40008 | 153.11611 | 17 ft | 13 kts | 207° |
| 2026-05-05 03:14 | -27.40086 | 153.11566 | 17 ft | 12 kts | 207° |
| 2026-05-05 03:14 | -27.40161 | 153.11523 | 17 ft | 12 kts | 207° |
| 2026-05-05 03:15 | -27.40237 | 153.11505 | 19 ft | 12 kts | 148° |
| 2026-05-05 03:15 | -27.40279 | 153.11581 | 18 ft | 11 kts | 117° |
| 2026-05-05 03:15 | -27.40309 | 153.11647 | 17 ft | 4 kts | 116° |
| 2026-05-05 03:15 | -27.40310 | 153.11651 | 17 ft | 0 kts | 115° |
| 2026-05-05 03:16 | -27.40311 | 153.11651 | 17 ft | 0 kts | 115° |
| 2026-05-05 03:16 | -27.40319 | 153.11676 | 18 ft | 7 kts | 109° |
| 2026-05-05 03:16 | -27.40321 | 153.11752 | 20 ft | 11 kts | 79° |
| 2026-05-05 03:16 | -27.40282 | 153.11822 | 18 ft | 11 kts | 36° |
| 2026-05-05 03:17 | -27.40255 | 153.11837 | 19 ft | 0 kts | 27° |
| 2026-05-05 03:18 | -27.40250 | 153.11840 | 18 ft | 10 kts | 27° |
| 2026-05-05 03:18 | -27.39984 | 153.11992 | 20 ft | 75 kts | 27° |
| 2026-05-05 03:19 | -27.38427 | 153.12897 | 56 ft | 168 kts | 27° |
| 2026-05-05 03:19 | -27.37398 | 153.13459 | 686 ft | 165 kts | 24° |
| 2026-05-05 03:19 | -27.36402 | 153.14191 | 1113 ft | 175 kts | 44° |
| 2026-05-05 03:20 | -27.35592 | 153.15213 | 1711 ft | 176 kts | 49° |
| 2026-05-05 03:20 | -27.34731 | 153.16298 | 1997 ft | 200 kts | 47° |
| 2026-05-05 03:20 | -27.33733 | 153.17491 | 2239 ft | 219 kts | 47° |
| 2026-05-05 03:20 | -27.32654 | 153.18810 | 2394 ft | 240 kts | 48° |
| 2026-05-05 03:21 | -27.31471 | 153.20239 | 2753 ft | 255 kts | 47° |
| 2026-05-05 03:21 | -27.30246 | 153.21691 | 3420 ft | 257 kts | 47° |
| 2026-05-05 03:21 | -27.29080 | 153.23215 | 4087 ft | 259 kts | 61° |
| 2026-05-05 03:21 | -27.28596 | 153.25124 | 4743 ft | 259 kts | 86° |
| 2026-05-05 03:22 | -27.28506 | 153.27155 | 5384 ft | 262 kts | 88° |
| 2026-05-05 03:22 | -27.28431 | 153.29221 | 6018 ft | 266 kts | 88° |
| 2026-05-05 03:22 | -27.28347 | 153.31309 | 6679 ft | 269 kts | 87° |
| 2026-05-05 03:22 | -27.28256 | 153.33423 | 7326 ft | 272 kts | 87° |
| 2026-05-05 03:23 | -27.28338 | 153.35552 | 7966 ft | 275 kts | 105° |
| 2026-05-05 03:23 | -27.29092 | 153.37519 | 8663 ft | 275 kts | 123° |
| 2026-05-05 03:23 | -27.30315 | 153.39172 | 9376 ft | 277 kts | 139° |
| 2026-05-05 03:23 | -27.31871 | 153.40461 | 10071 ft | 279 kts | 152° |
| 2026-05-05 03:24 | -27.33701 | 153.41211 | 10659 ft | 284 kts | 175° |
| 2026-05-05 03:24 | -27.35686 | 153.41168 | 11266 ft | 287 kts | 186° |
| 2026-05-05 03:24 | -27.37696 | 153.40972 | 11888 ft | 292 kts | 185° |
| 2026-05-05 03:24 | -27.39755 | 153.40679 | 12221 ft | 308 kts | 197° |
| 2026-05-05 03:25 | -27.41845 | 153.39957 | 12395 ft | 328 kts | 200° |
| 2026-05-05 03:25 | -27.44080 | 153.39147 | 12671 ft | 345 kts | 199° |
| 2026-05-05 03:25 | -27.46405 | 153.38351 | 13203 ft | 352 kts | 199° |
| 2026-05-05 03:25 | -27.48626 | 153.37184 | 13792 ft | 355 kts | 219° |
| 2026-05-05 03:26 | -27.50510 | 153.35368 | 14330 ft | 359 kts | 224° |
| 2026-05-05 03:26 | -27.52406 | 153.33503 | 14928 ft | 363 kts | 223° |
| 2026-05-05 03:26 | -27.54334 | 153.31652 | 15565 ft | 366 kts | 223° |
| 2026-05-05 03:26 | -27.56206 | 153.29711 | 16181 ft | 366 kts | 234° |
| 2026-05-05 03:27 | -27.57484 | 153.27267 | 16811 ft | 362 kts | 248° |
| 2026-05-05 03:27 | -27.58567 | 153.24701 | 17478 ft | 364 kts | 248° |
| 2026-05-05 03:27 | -27.59683 | 153.22128 | 18096 ft | 367 kts | 248° |
| 2026-05-05 03:27 | -27.60844 | 153.19555 | 18641 ft | 371 kts | 244° |
| 2026-05-05 03:28 | -27.62519 | 153.17284 | 19177 ft | 384 kts | 225° |
| 2026-05-05 03:28 | -27.64760 | 153.15587 | 19770 ft | 391 kts | 217° |
| 2026-05-05 03:28 | -27.67132 | 153.14038 | 20284 ft | 395 kts | 216° |
| 2026-05-05 03:28 | -27.69507 | 153.12515 | 20794 ft | 398 kts | 216° |
| 2026-05-05 03:29 | -27.71916 | 153.10957 | 21293 ft | 401 kts | 217° |
| 2026-05-05 03:29 | -27.74333 | 153.09372 | 21828 ft | 403 kts | 217° |
| 2026-05-05 03:29 | -27.76752 | 153.07768 | 22358 ft | 404 kts | 218° |
| 2026-05-05 03:29 | -27.79179 | 153.06150 | 22864 ft | 406 kts | 218° |
| 2026-05-05 03:30 | -27.81624 | 153.04524 | 23352 ft | 409 kts | 218° |
| 2026-05-05 03:30 | -27.84225 | 153.03098 | 23789 ft | 419 kts | 211° |
| 2026-05-05 03:30 | -27.86960 | 153.01902 | 24195 ft | 424 kts | 208° |
| 2026-05-05 03:30 | -27.89752 | 153.00769 | 24585 ft | 427 kts | 208° |
| 2026-05-05 03:31 | -27.92557 | 152.99627 | 24959 ft | 430 kts | 209° |
| 2026-05-05 03:31 | -27.95364 | 152.98452 | 25328 ft | 432 kts | 210° |
| 2026-05-05 03:31 | -27.98179 | 152.97243 | 25722 ft | 433 kts | 210° |
| 2026-05-05 03:31 | -28.01001 | 152.96012 | 26102 ft | 435 kts | 210° |
| 2026-05-05 03:32 | -28.03826 | 152.94771 | 26462 ft | 437 kts | 211° |
| 2026-05-05 03:32 | -28.06668 | 152.93522 | 26817 ft | 440 kts | 211° |
| 2026-05-05 03:32 | -28.09533 | 152.92264 | 27165 ft | 442 kts | 211° |
| 2026-05-05 03:32 | -28.12361 | 152.91013 | 27527 ft | 444 kts | 211° |
| 2026-05-05 03:33 | -28.15250 | 152.89727 | 27831 ft | 447 kts | 211° |
| 2026-05-05 03:33 | -28.18146 | 152.88434 | 28180 ft | 449 kts | 211° |
| 2026-05-05 03:33 | -28.21058 | 152.87134 | 28511 ft | 451 kts | 211° |
| 2026-05-05 03:33 | -28.23987 | 152.85827 | 28828 ft | 453 kts | 211° |
| 2026-05-05 03:34 | -28.26926 | 152.84514 | 29148 ft | 455 kts | 212° |
| 2026-05-05 03:34 | -28.29884 | 152.83193 | 29456 ft | 458 kts | 212° |
| 2026-05-05 03:34 | -28.32856 | 152.81866 | 29767 ft | 460 kts | 212° |
| 2026-05-05 03:34 | -28.34844 | 152.80977 | 29960 ft | 462 kts | 212° |
| 2026-05-05 03:35 | -28.37837 | 152.79639 | 30321 ft | 463 kts | 211° |
| 2026-05-05 03:35 | -28.40822 | 152.78310 | 30829 ft | 457 kts | 212° |
| 2026-05-05 03:35 | -28.43762 | 152.77003 | 31334 ft | 452 kts | 212° |
| 2026-05-05 03:35 | -28.46692 | 152.75693 | 31637 ft | 453 kts | 212° |
| 2026-05-05 03:36 | -28.49631 | 152.74372 | 31912 ft | 455 kts | 212° |
| 2026-05-05 03:36 | -28.52575 | 152.73049 | 32206 ft | 455 kts | 212° |
| 2026-05-05 03:36 | -28.55513 | 152.71732 | 32605 ft | 452 kts | 213° |
| 2026-05-05 03:36 | -28.58428 | 152.70426 | 33056 ft | 448 kts | 213° |
| 2026-05-05 03:37 | -28.61327 | 152.69126 | 33506 ft | 446 kts | 213° |
| 2026-05-05 03:37 | -28.64208 | 152.67831 | 33876 ft | 445 kts | 214° |
| 2026-05-05 03:37 | -28.67082 | 152.66537 | 34176 ft | 444 kts | 214° |
| 2026-05-05 03:37 | -28.69954 | 152.65242 | 34432 ft | 444 kts | 214° |
| 2026-05-05 03:38 | -28.72826 | 152.63947 | 34690 ft | 444 kts | 214° |
| 2026-05-05 03:38 | -28.75697 | 152.62653 | 34931 ft | 444 kts | 214° |
| 2026-05-05 03:38 | -28.78569 | 152.61358 | 35196 ft | 443 kts | 214° |
| 2026-05-05 03:38 | -28.81431 | 152.60068 | 35455 ft | 443 kts | 214° |
| 2026-05-05 03:39 | -28.84259 | 152.58791 | 35703 ft | 442 kts | 215° |
| 2026-05-05 03:39 | -28.87022 | 152.57354 | 35997 ft | 432 kts | 220° |
| 2026-05-05 03:39 | -28.92367 | 152.54178 | 36063 ft | 434 kts | 221° |
| 2026-05-05 03:40 | -28.97697 | 152.50942 | 36066 ft | 432 kts | 221° |
| 2026-05-05 03:40 | -29.02996 | 152.47763 | 36063 ft | 429 kts | 221° |
| 2026-05-05 03:41 | -29.08274 | 152.44611 | 36084 ft | 427 kts | 221° |
| 2026-05-05 03:41 | -29.13537 | 152.41472 | 36065 ft | 427 kts | 221° |
| 2026-05-05 03:42 | -29.18798 | 152.38330 | 36073 ft | 426 kts | 221° |
| 2026-05-05 03:42 | -29.24017 | 152.35209 | 36068 ft | 426 kts | 221° |
| 2026-05-05 03:43 | -29.29270 | 152.32065 | 36106 ft | 427 kts | 221° |
| 2026-05-05 03:43 | -29.34529 | 152.28914 | 36074 ft | 427 kts | 221° |
| 2026-05-05 03:44 | -29.39792 | 152.25755 | 36093 ft | 428 kts | 221° |
| 2026-05-05 03:44 | -29.45077 | 152.22580 | 36083 ft | 429 kts | 221° |
| 2026-05-05 03:45 | -29.50366 | 152.19403 | 36092 ft | 428 kts | 221° |
| 2026-05-05 03:45 | -29.55659 | 152.16214 | 36101 ft | 430 kts | 221° |
| 2026-05-05 03:46 | -29.60963 | 152.13017 | 36099 ft | 430 kts | 221° |
| 2026-05-05 03:46 | -29.66276 | 152.09811 | 36097 ft | 431 kts | 221° |
| 2026-05-05 03:47 | -29.71836 | 152.06938 | 36121 ft | 459 kts | 208° |
| 2026-05-05 03:47 | -29.74985 | 152.06040 | 36139 ft | 470 kts | 206° |
| 2026-05-05 03:47 | -29.78205 | 152.05226 | 36108 ft | 477 kts | 205° |
| 2026-05-05 03:48 | -29.84742 | 152.03626 | 36097 ft | 480 kts | 205° |
| 2026-05-05 03:48 | -29.91267 | 152.01976 | 36094 ft | 480 kts | 205° |
| 2026-05-05 03:49 | -29.97788 | 152.00278 | 36093 ft | 480 kts | 205° |
| 2026-05-05 03:49 | -30.04301 | 151.98568 | 36098 ft | 480 kts | 205° |
| 2026-05-05 03:50 | -30.10805 | 151.96859 | 36111 ft | 479 kts | 205° |
| 2026-05-05 03:50 | -30.17301 | 151.95151 | 36097 ft | 479 kts | 205° |
| 2026-05-05 03:51 | -30.23793 | 151.93444 | 36117 ft | 478 kts | 205° |
| 2026-05-05 03:51 | -30.30229 | 151.91747 | 36111 ft | 478 kts | 206° |
| 2026-05-05 03:52 | -30.36441 | 151.89490 | 36123 ft | 460 kts | 215° |
| 2026-05-05 03:52 | -30.42345 | 151.86659 | 36103 ft | 459 kts | 216° |
| 2026-05-05 03:53 | -30.48247 | 151.83810 | 36115 ft | 459 kts | 216° |
| 2026-05-05 03:53 | -30.54166 | 151.81013 | 36114 ft | 459 kts | 215° |
| 2026-05-05 03:54 | -30.60097 | 151.78239 | 36100 ft | 459 kts | 215° |
| 2026-05-05 03:54 | -30.66007 | 151.75478 | 36101 ft | 458 kts | 215° |
| 2026-05-05 03:55 | -30.71906 | 151.72717 | 36120 ft | 456 kts | 215° |
| 2026-05-05 03:55 | -30.77775 | 151.69964 | 36101 ft | 454 kts | 215° |
| 2026-05-05 03:56 | -30.83622 | 151.67217 | 36105 ft | 452 kts | 215° |
| 2026-05-05 03:56 | -30.89405 | 151.64496 | 36104 ft | 450 kts | 215° |
| 2026-05-05 03:57 | -30.95208 | 151.61762 | 36124 ft | 450 kts | 215° |
| 2026-05-05 03:57 | -31.01003 | 151.59027 | 36118 ft | 448 kts | 215° |
| 2026-05-05 03:58 | -31.06784 | 151.56297 | 36107 ft | 447 kts | 215° |
| 2026-05-05 03:58 | -31.12544 | 151.53572 | 36143 ft | 446 kts | 215° |
| 2026-05-05 03:59 | -31.18288 | 151.50851 | 36128 ft | 446 kts | 215° |
| 2026-05-05 03:59 | -31.24036 | 151.48124 | 36118 ft | 446 kts | 215° |
| 2026-05-05 04:00 | -31.29784 | 151.45395 | 36113 ft | 446 kts | 215° |
| 2026-05-05 04:00 | -31.35537 | 151.42659 | 36138 ft | 446 kts | 214° |
| 2026-05-05 04:01 | -31.41274 | 151.39962 | 36125 ft | 449 kts | 213° |
| 2026-05-05 04:01 | -31.47127 | 151.37362 | 36050 ft | 452 kts | 212° |
| 2026-05-05 04:02 | -31.50088 | 151.36054 | 35682 ft | 456 kts | 212° |
| 2026-05-05 04:02 | -31.53052 | 151.34747 | 35320 ft | 454 kts | 212° |
| 2026-05-05 04:02 | -31.56001 | 151.33440 | 34939 ft | 453 kts | 212° |
| 2026-05-05 04:02 | -31.58969 | 151.32115 | 34482 ft | 459 kts | 212° |
| 2026-05-05 04:03 | -31.61969 | 151.30769 | 34023 ft | 463 kts | 212° |
| 2026-05-05 04:03 | -31.64941 | 151.29446 | 33499 ft | 450 kts | 212° |
| 2026-05-05 04:03 | -31.67830 | 151.28166 | 33079 ft | 438 kts | 212° |
| 2026-05-05 04:03 | -31.70646 | 151.26915 | 32652 ft | 426 kts | 212° |
| 2026-05-05 04:04 | -31.73385 | 151.25691 | 32275 ft | 418 kts | 212° |
| 2026-05-05 04:04 | -31.76087 | 151.24473 | 31907 ft | 414 kts | 212° |
| 2026-05-05 04:04 | -31.78734 | 151.23277 | 31539 ft | 411 kts | 212° |
| 2026-05-05 04:04 | -31.81390 | 151.22078 | 31150 ft | 407 kts | 211° |
| 2026-05-05 04:05 | -31.84018 | 151.20894 | 30782 ft | 403 kts | 211° |
| 2026-05-05 04:05 | -31.86645 | 151.19707 | 30414 ft | 407 kts | 211° |
| 2026-05-05 04:05 | -31.89314 | 151.18498 | 29971 ft | 415 kts | 211° |
| 2026-05-05 04:05 | -31.92020 | 151.17276 | 29562 ft | 417 kts | 210° |
| 2026-05-05 04:06 | -31.94735 | 151.16057 | 29113 ft | 416 kts | 210° |
| 2026-05-05 04:06 | -31.97452 | 151.14839 | 28505 ft | 419 kts | 210° |
| 2026-05-05 04:06 | -32.00167 | 151.13625 | 28116 ft | 416 kts | 210° |
| 2026-05-05 04:06 | -32.02873 | 151.12415 | 27687 ft | 415 kts | 210° |
| 2026-05-05 04:07 | -32.05566 | 151.11209 | 27286 ft | 413 kts | 210° |
| 2026-05-05 04:07 | -32.08235 | 151.10014 | 26890 ft | 407 kts | 209° |
| 2026-05-05 04:07 | -32.10848 | 151.08847 | 26486 ft | 396 kts | 210° |
| 2026-05-05 04:07 | -32.13387 | 151.07713 | 26105 ft | 384 kts | 210° |
| 2026-05-05 04:08 | -32.15851 | 151.06609 | 25763 ft | 373 kts | 210° |
| 2026-05-05 04:08 | -32.18269 | 151.05519 | 25427 ft | 370 kts | 210° |
| 2026-05-05 04:08 | -32.20667 | 151.04434 | 25090 ft | 367 kts | 210° |
| 2026-05-05 04:08 | -32.23046 | 151.03356 | 24754 ft | 365 kts | 209° |
| 2026-05-05 04:09 | -32.25415 | 151.02284 | 24408 ft | 363 kts | 209° |
| 2026-05-05 04:09 | -32.27741 | 151.01233 | 24066 ft | 360 kts | 209° |
| 2026-05-05 04:09 | -32.30060 | 151.00187 | 23722 ft | 353 kts | 208° |
| 2026-05-05 04:09 | -32.32348 | 150.99155 | 23339 ft | 350 kts | 208° |
| 2026-05-05 04:10 | -32.34614 | 150.98129 | 22962 ft | 348 kts | 208° |
| 2026-05-05 04:10 | -32.36862 | 150.97111 | 22619 ft | 344 kts | 208° |
| 2026-05-05 04:10 | -32.39090 | 150.96103 | 22279 ft | 341 kts | 208° |
| 2026-05-05 04:10 | -32.41305 | 150.95099 | 21934 ft | 339 kts | 208° |
| 2026-05-05 04:11 | -32.43496 | 150.94106 | 21613 ft | 336 kts | 208° |
| 2026-05-05 04:11 | -32.45674 | 150.93120 | 21279 ft | 334 kts | 208° |
| 2026-05-05 04:11 | -32.47840 | 150.92155 | 20943 ft | 333 kts | 205° |
| 2026-05-05 04:11 | -32.50135 | 150.91589 | 20623 ft | 341 kts | 191° |
| 2026-05-05 04:12 | -32.52527 | 150.91593 | 20387 ft | 347 kts | 179° |
| 2026-05-05 04:12 | -32.54919 | 150.91997 | 20465 ft | 350 kts | 177° |
| 2026-05-05 04:12 | -32.57341 | 150.92456 | 20330 ft | 354 kts | 176° |
| 2026-05-05 04:12 | -32.59753 | 150.92921 | 19946 ft | 355 kts | 176° |
| 2026-05-05 04:13 | -32.62184 | 150.93382 | 19634 ft | 352 kts | 176° |
| 2026-05-05 04:13 | -32.64600 | 150.93831 | 19295 ft | 351 kts | 176° |
| 2026-05-05 04:13 | -32.67008 | 150.94271 | 18953 ft | 350 kts | 175° |
| 2026-05-05 04:13 | -32.69414 | 150.94707 | 18608 ft | 349 kts | 175° |
| 2026-05-05 04:14 | -32.71817 | 150.95140 | 18243 ft | 348 kts | 175° |
| 2026-05-05 04:14 | -32.74209 | 150.95572 | 17880 ft | 347 kts | 175° |
| 2026-05-05 04:14 | -32.76589 | 150.96001 | 17520 ft | 345 kts | 175° |
| 2026-05-05 04:14 | -32.78952 | 150.96428 | 17164 ft | 339 kts | 175° |
| 2026-05-05 04:15 | -32.81238 | 150.96839 | 16915 ft | 326 kts | 175° |
| 2026-05-05 04:15 | -32.83477 | 150.97237 | 16614 ft | 324 kts | 175° |
| 2026-05-05 04:15 | -32.85702 | 150.97630 | 16295 ft | 323 kts | 175° |
| 2026-05-05 04:15 | -32.87916 | 150.98021 | 15984 ft | 321 kts | 175° |
| 2026-05-05 04:16 | -32.90119 | 150.98410 | 15676 ft | 319 kts | 175° |
| 2026-05-05 04:16 | -32.92314 | 150.98799 | 15380 ft | 318 kts | 175° |
| 2026-05-05 04:16 | -32.94502 | 150.99188 | 15064 ft | 317 kts | 175° |
| 2026-05-05 04:16 | -32.96684 | 150.99575 | 14748 ft | 317 kts | 175° |
| 2026-05-05 04:17 | -32.98834 | 150.99957 | 14434 ft | 316 kts | 175° |
| 2026-05-05 04:17 | -33.01006 | 151.00344 | 14127 ft | 315 kts | 175° |
| 2026-05-05 04:17 | -33.03177 | 151.00730 | 13795 ft | 315 kts | 175° |
| 2026-05-05 04:17 | -33.05342 | 151.01116 | 13451 ft | 314 kts | 175° |
| 2026-05-05 04:18 | -33.07503 | 151.01501 | 13125 ft | 312 kts | 175° |
| 2026-05-05 04:18 | -33.09651 | 151.01884 | 12799 ft | 311 kts | 175° |
| 2026-05-05 04:18 | -33.11786 | 151.02265 | 12482 ft | 310 kts | 175° |
| 2026-05-05 04:18 | -33.13915 | 151.02645 | 12169 ft | 308 kts | 175° |
| 2026-05-05 04:19 | -33.16031 | 151.03023 | 11865 ft | 307 kts | 175° |
| 2026-05-05 04:19 | -33.18133 | 151.03399 | 11561 ft | 305 kts | 175° |
| 2026-05-05 04:19 | -33.20231 | 151.03774 | 11252 ft | 304 kts | 175° |
| 2026-05-05 04:19 | -33.22292 | 151.04143 | 10941 ft | 303 kts | 174° |
| 2026-05-05 04:20 | -33.24401 | 151.04524 | 10643 ft | 302 kts | 174° |
| 2026-05-05 04:20 | -33.26452 | 151.04913 | 10321 ft | 303 kts | 174° |
| 2026-05-05 04:20 | -33.28521 | 151.05313 | 10135 ft | 297 kts | 174° |
| 2026-05-05 04:20 | -33.30544 | 151.05704 | 9931 ft | 293 kts | 174° |
| 2026-05-05 04:21 | -33.32555 | 151.06090 | 9600 ft | 292 kts | 174° |
| 2026-05-05 04:21 | -33.34563 | 151.06475 | 9296 ft | 291 kts | 174° |
| 2026-05-05 04:21 | -33.36555 | 151.06858 | 9014 ft | 289 kts | 173° |
| 2026-05-05 04:21 | -33.38534 | 151.07237 | 8721 ft | 288 kts | 173° |
| 2026-05-05 04:22 | -33.40512 | 151.07616 | 8433 ft | 287 kts | 173° |
| 2026-05-05 04:22 | -33.42479 | 151.07994 | 8143 ft | 285 kts | 173° |
| 2026-05-05 04:22 | -33.44433 | 151.08369 | 7863 ft | 284 kts | 173° |
| 2026-05-05 04:22 | -33.46381 | 151.08743 | 7572 ft | 281 kts | 173° |
| 2026-05-05 04:23 | -33.47653 | 151.08988 | 7376 ft | 278 kts | 173° |
| 2026-05-05 04:23 | -33.49556 | 151.09354 | 7108 ft | 276 kts | 172° |
| 2026-05-05 04:23 | -33.51449 | 151.09718 | 6845 ft | 275 kts | 172° |
| 2026-05-05 04:23 | -33.53338 | 151.10082 | 6559 ft | 274 kts | 172° |
| 2026-05-05 04:24 | -33.55195 | 151.10440 | 6255 ft | 267 kts | 173° |
| 2026-05-05 04:24 | -33.57570 | 151.10898 | 5896 ft | 256 kts | 172° |
| 2026-05-05 04:24 | -33.58738 | 151.11123 | 5728 ft | 256 kts | 172° |
| 2026-05-05 04:25 | -33.62261 | 151.11805 | 5237 ft | 254 kts | 172° |
| 2026-05-05 04:25 | -33.63978 | 151.12144 | 5013 ft | 246 kts | 172° |
| 2026-05-05 04:25 | -33.65640 | 151.12473 | 4803 ft | 235 kts | 174° |
| 2026-05-05 04:25 | -33.67205 | 151.12784 | 4571 ft | 222 kts | 174° |
| 2026-05-05 04:26 | -33.68688 | 151.13078 | 4320 ft | 209 kts | 174° |
| 2026-05-05 04:26 | -33.70080 | 151.13353 | 4129 ft | 196 kts | 174° |
| 2026-05-05 04:26 | -33.71357 | 151.13205 | 3984 ft | 180 kts | 207° |
| 2026-05-05 04:26 | -33.72491 | 151.12693 | 3807 ft | 174 kts | 184° |
| 2026-05-05 04:27 | -33.73651 | 151.13120 | 3742 ft | 179 kts | 159° |
| 2026-05-05 04:27 | -33.74849 | 151.13571 | 3516 ft | 180 kts | 169° |
| 2026-05-05 04:27 | -33.76066 | 151.13895 | 3311 ft | 178 kts | 171° |
| 2026-05-05 04:27 | -33.77270 | 151.14208 | 3110 ft | 177 kts | 171° |
| 2026-05-05 04:28 | -33.78483 | 151.14521 | 3049 ft | 178 kts | 170° |
| 2026-05-05 04:28 | -33.79688 | 151.14836 | 2969 ft | 175 kts | 171° |
| 2026-05-05 04:28 | -33.80855 | 151.15142 | 2843 ft | 170 kts | 169° |
| 2026-05-05 04:28 | -33.81974 | 151.15435 | 2666 ft | 157 kts | 171° |
| 2026-05-05 04:29 | -33.83002 | 151.15703 | 2443 ft | 148 kts | 171° |
| 2026-05-05 04:29 | -33.84004 | 151.15964 | 2233 ft | 147 kts | 171° |
| 2026-05-05 04:29 | -33.84988 | 151.16220 | 2030 ft | 147 kts | 171° |
| 2026-05-05 04:29 | -33.85984 | 151.16480 | 1845 ft | 146 kts | 170° |
| 2026-05-05 04:30 | -33.86977 | 151.16738 | 1658 ft | 149 kts | 170° |
| 2026-05-05 04:30 | -33.87989 | 151.17003 | 1441 ft | 147 kts | 169° |
| 2026-05-05 04:30 | -33.88985 | 151.17264 | 1252 ft | 145 kts | 171° |
| 2026-05-05 04:30 | -33.89947 | 151.17514 | 1060 ft | 141 kts | 170° |
| 2026-05-05 04:31 | -33.90905 | 151.17765 | 905 ft | 142 kts | 171° |
| 2026-05-05 04:31 | -33.91878 | 151.18022 | 708 ft | 144 kts | 171° |
| 2026-05-05 04:31 | -33.92855 | 151.18282 | 514 ft | 143 kts | 172° |
| 2026-05-05 04:31 | -33.93826 | 151.18535 | 313 ft | 143 kts | 172° |
| 2026-05-05 04:32 | -33.94800 | 151.18787 | 137 ft | 143 kts | 171° |
| 2026-05-05 04:32 | -33.95757 | 151.19013 | 26 ft | 129 kts | 163° |
| 2026-05-05 04:32 | -33.96451 | 151.19210 | 26 ft | 81 kts | 167° |
| 2026-05-05 04:32 | -33.96758 | 151.19284 | 22 ft | 29 kts | 174° |
| 2026-05-05 04:33 | -33.96951 | 151.19282 | 25 ft | 26 kts | 190° |
| 2026-05-05 04:33 | -33.97097 | 151.19239 | 28 ft | 18 kts | 211° |
| 2026-05-05 04:33 | -33.97078 | 151.19131 | 29 ft | 17 kts | 346° |
| 2026-05-05 04:33 | -33.96963 | 151.19104 | 29 ft | 16 kts | 347° |
| 2026-05-05 04:34 | -33.96853 | 151.19075 | 29 ft | 16 kts | 348° |
| 2026-05-05 04:34 | -33.96746 | 151.19069 | 29 ft | 15 kts | 7° |
| 2026-05-05 04:34 | -33.96644 | 151.19064 | 29 ft | 15 kts | 348° |
| 2026-05-05 04:34 | -33.96547 | 151.19040 | 29 ft | 14 kts | 348° |
| 2026-05-05 04:35 | -33.96455 | 151.19015 | 29 ft | 13 kts | 347° |
| 2026-05-05 04:35 | -33.96367 | 151.18992 | 29 ft | 13 kts | 348° |
| 2026-05-05 04:35 | -33.96281 | 151.18969 | 29 ft | 13 kts | 347° |
| 2026-05-05 04:35 | -33.96196 | 151.18947 | 29 ft | 12 kts | 348° |
| 2026-05-05 04:36 | -33.96115 | 151.18926 | 29 ft | 12 kts | 347° |
| 2026-05-05 04:36 | -33.96035 | 151.18905 | 29 ft | 12 kts | 347° |
| 2026-05-05 04:36 | -33.95957 | 151.18884 | 29 ft | 11 kts | 348° |
| 2026-05-05 04:36 | -33.95875 | 151.18863 | 29 ft | 13 kts | 348° |
| 2026-05-05 04:37 | -33.95773 | 151.18836 | 29 ft | 17 kts | 347° |
| 2026-05-05 04:37 | -33.95650 | 151.18804 | 29 ft | 20 kts | 348° |
| 2026-05-05 04:37 | -33.95506 | 151.18768 | 29 ft | 23 kts | 347° |
| 2026-05-05 04:37 | -33.95350 | 151.18727 | 29 ft | 23 kts | 347° |
| 2026-05-05 04:38 | -33.95211 | 151.18648 | 29 ft | 22 kts | 319° |
| 2026-05-05 04:38 | -33.95115 | 151.18510 | 29 ft | 21 kts | 288° |
| 2026-05-05 04:38 | -33.95131 | 151.18339 | 29 ft | 21 kts | 257° |
| 2026-05-05 04:38 | -33.95162 | 151.18168 | 29 ft | 20 kts | 257° |
| 2026-05-05 04:39 | -33.95185 | 151.18004 | 29 ft | 20 kts | 279° |
| 2026-05-05 04:39 | -33.95073 | 151.17936 | 29 ft | 19 kts | 348° |
| 2026-05-05 04:39 | -33.94946 | 151.17903 | 29 ft | 18 kts | 348° |
| 2026-05-05 04:39 | -33.94823 | 151.17871 | 29 ft | 18 kts | 348° |
| 2026-05-05 04:40 | -33.94705 | 151.17840 | 29 ft | 17 kts | 348° |
| 2026-05-05 04:40 | -33.94590 | 151.17811 | 29 ft | 16 kts | 348° |
| 2026-05-05 04:40 | -33.94482 | 151.17781 | 29 ft | 16 kts | 346° |
| 2026-05-05 04:40 | -33.94377 | 151.17749 | 29 ft | 15 kts | 346° |
| 2026-05-05 04:41 | -33.94277 | 151.17718 | 29 ft | 15 kts | 345° |
| 2026-05-05 04:41 | -33.94181 | 151.17687 | 28 ft | 14 kts | 346° |
| 2026-05-05 04:41 | -33.94089 | 151.17662 | 27 ft | 13 kts | 347° |
| 2026-05-05 04:41 | -33.94001 | 151.17637 | 27 ft | 13 kts | 347° |
| 2026-05-05 04:42 | -33.93914 | 151.17615 | 28 ft | 13 kts | 348° |
| 2026-05-05 04:42 | -33.93831 | 151.17593 | 28 ft | 12 kts | 348° |
| 2026-05-05 04:42 | -33.93749 | 151.17571 | 28 ft | 12 kts | 347° |
| 2026-05-05 04:42 | -33.93669 | 151.17551 | 28 ft | 12 kts | 348° |
| 2026-05-05 04:43 | -33.93591 | 151.17531 | 28 ft | 11 kts | 347° |
| 2026-05-05 04:43 | -33.93515 | 151.17511 | 28 ft | 11 kts | 348° |
| 2026-05-05 04:43 | -33.93441 | 151.17501 | 29 ft | 11 kts | 10° |
| 2026-05-05 04:43 | -33.93369 | 151.17501 | 29 ft | 10 kts | 347° |
| 2026-05-05 04:44 | -33.93299 | 151.17483 | 29 ft | 10 kts | 347° |
| 2026-05-05 04:44 | -33.93232 | 151.17465 | 29 ft | 10 kts | 347° |
| 2026-05-05 04:44 | -33.93166 | 151.17448 | 29 ft | 10 kts | 348° |
| 2026-05-05 04:44 | -33.93102 | 151.17432 | 29 ft | 9 kts | 348° |
| 2026-05-05 04:45 | -33.93040 | 151.17416 | 29 ft | 9 kts | 348° |
| 2026-05-05 04:45 | -33.92985 | 151.17426 | 29 ft | 9 kts | 52° |
| 2026-05-05 04:45 | -33.92990 | 151.17499 | 29 ft | 9 kts | 103° |
| 2026-05-05 04:45 | -33.93002 | 151.17569 | 29 ft | 8 kts | 101° |
| 2026-05-05 04:46 | -33.93013 | 151.17635 | 29 ft | 8 kts | 101° |
| 2026-05-05 04:46 | -33.93020 | 151.17672 | 29 ft | 2 kts | 107° |
| 2026-05-05 04:46 | -33.93033 | 151.17683 | 29 ft | 2 kts | 166° |
| 2026-05-05 04:46 | -33.93050 | 151.17681 | 29 ft | 2 kts | 188° |
| 2026-05-05 04:47 | -33.93066 | 151.17678 | 29 ft | 2 kts | 187° |
| 2026-05-05 04:47 | -33.93081 | 151.17676 | 29 ft | 2 kts | 188° |
| 2026-05-05 04:47 | -33.93096 | 151.17673 | 29 ft | 2 kts | 188° |
| 2026-05-05 04:47 | -33.93098 | 151.17673 | 29 ft | 0 kts | 188° |